sensor_id;sensor_type;location;lat;lon;timestamp;temperature;humidity
41882;DHT22;27562;47.524;12.404;2023-12-28T00:00:28;-1.20;99.90
41882;DHT22;27562;47.524;12.404;2023-12-28T00:02:53;-1.10;99.90
41882;DHT22;27562;47.524;12.404;2023-12-28T00:05:19;-1.20;99.90
41882;DHT22;27562;47.524;12.404;2023-12-28T00:07:45;-1.30;99.90
41882;DHT22;27562;47.524;12.404;2023-12-28T00:10:10;-1.30;99.90
41882;DHT22;27562;47.524;12.404;2023-12-28T00:12:36;-1.30;99.90
41882;DHT22;27562;47.524;12.404;2023-12-28T00:15:02;-1.40;99.90
41882;DHT22;27562;47.524;12.404;2023-12-28T00:17:27;-1.50;99.90
41882;DHT22;27562;47.524;12.404;2023-12-28T00:19:53;-1.50;99.90
41882;DHT22;27562;47.524;12.404;2023-12-28T00:22:20;-1.50;99.90
41882;DHT22;27562;47.524;12.404;2023-12-28T00:24:45;-1.50;99.90
41882;DHT22;27562;47.524;12.404;2023-12-28T00:27:11;-1.50;99.90
41882;DHT22;27562;47.524;12.404;2023-12-28T00:29:36;-1.50;99.90
41882;DHT22;27562;47.524;12.404;2023-12-28T00:32:07;-1.60;99.90
41882;DHT22;27562;47.524;12.404;2023-12-28T00:34:32;-1.60;99.90
41882;DHT22;27562;47.524;12.404;2023-12-28T00:36:58;-1.60;99.90
41882;DHT22;27562;47.524;12.404;2023-12-28T00:39:27;-1.50;99.90
41882;DHT22;27562;47.524;12.404;2023-12-28T00:41:52;-1.50;99.90
41882;DHT22;27562;47.524;12.404;2023-12-28T00:44:18;-1.50;99.90
41882;DHT22;27562;47.524;12.404;2023-12-28T00:46:44;-1.50;99.90
41882;DHT22;27562;47.524;12.404;2023-12-28T00:49:09;-1.50;99.90
41882;DHT22;27562;47.524;12.404;2023-12-28T00:51:35;-1.50;99.90
41882;DHT22;27562;47.524;12.404;2023-12-28T00:54:02;-1.40;99.90
41882;DHT22;27562;47.524;12.404;2023-12-28T00:56:27;-1.50;99.90
41882;DHT22;27562;47.524;12.404;2023-12-28T00:58:53;-1.50;99.90
41882;DHT22;27562;47.524;12.404;2023-12-28T01:01:19;-1.50;99.90
41882;DHT22;27562;47.524;12.404;2023-12-28T01:03:45;-1.50;99.90
41882;DHT22;27562;47.524;12.404;2023-12-28T01:06:10;-1.60;99.90
41882;DHT22;27562;47.524;12.404;2023-12-28T01:08:36;-1.60;99.90
41882;DHT22;27562;47.524;12.404;2023-12-28T01:11:02;-1.60;99.90
41882;DHT22;27562;47.524;12.404;2023-12-28T01:13:28;-1.70;99.90
41882;DHT22;27562;47.524;12.404;2023-12-28T01:15:54;-1.70;99.90
41882;DHT22;27562;47.524;12.404;2023-12-28T01:18:20;-1.70;99.90
41882;DHT22;27562;47.524;12.404;2023-12-28T01:20:46;-1.70;99.90
41882;DHT22;27562;47.524;12.404;2023-12-28T01:23:11;-1.70;99.90
41882;DHT22;27562;47.524;12.404;2023-12-28T01:25:37;-1.70;99.90
41882;DHT22;27562;47.524;12.404;2023-12-28T01:28:03;-1.70;99.90
41882;DHT22;27562;47.524;12.404;2023-12-28T01:30:29;-1.70;99.90
41882;DHT22;27562;47.524;12.404;2023-12-28T01:32:55;-1.70;99.90
41882;DHT22;27562;47.524;12.404;2023-12-28T01:35:21;-1.70;99.90
41882;DHT22;27562;47.524;12.404;2023-12-28T01:37:46;-1.70;99.90
41882;DHT22;27562;47.524;12.404;2023-12-28T01:40:12;-1.70;99.90
41882;DHT22;27562;47.524;12.404;2023-12-28T01:42:39;-1.70;99.90
41882;DHT22;27562;47.524;12.404;2023-12-28T01:45:05;-1.70;99.90
41882;DHT22;27562;47.524;12.404;2023-12-28T01:47:31;-1.80;99.90
41882;DHT22;27562;47.524;12.404;2023-12-28T01:49:57;-1.80;99.90
41882;DHT22;27562;47.524;12.404;2023-12-28T01:52:24;-1.80;99.90
41882;DHT22;27562;47.524;12.404;2023-12-28T01:54:49;-1.80;99.90
41882;DHT22;27562;47.524;12.404;2023-12-28T01:57:16;-1.90;99.90
41882;DHT22;27562;47.524;12.404;2023-12-28T01:59:43;-1.90;99.90
41882;DHT22;27562;47.524;12.404;2023-12-28T02:02:08;-2.00;99.90
41882;DHT22;27562;47.524;12.404;2023-12-28T02:04:35;-2.10;99.90
41882;DHT22;27562;47.524;12.404;2023-12-28T02:07:01;-2.20;99.90
41882;DHT22;27562;47.524;12.404;2023-12-28T02:09:27;-2.20;99.90
41882;DHT22;27562;47.524;12.404;2023-12-28T02:11:53;-2.10;99.90
41882;DHT22;27562;47.524;12.404;2023-12-28T02:14:20;-2.10;99.90
41882;DHT22;27562;47.524;12.404;2023-12-28T02:17:10;-2.10;99.90
41882;DHT22;27562;47.524;12.404;2023-12-28T02:19:45;-2.10;99.90
41882;DHT22;27562;47.524;12.404;2023-12-28T02:22:14;-2.10;99.90
41882;DHT22;27562;47.524;12.404;2023-12-28T02:27:27;-2.10;99.90
41882;DHT22;27562;47.524;12.404;2023-12-28T02:29:54;-2.10;99.90
41882;DHT22;27562;47.524;12.404;2023-12-28T02:32:24;-2.10;99.90
41882;DHT22;27562;47.524;12.404;2023-12-28T02:34:54;-2.20;99.90
41882;DHT22;27562;47.524;12.404;2023-12-28T02:37:21;-2.20;99.90
41882;DHT22;27562;47.524;12.404;2023-12-28T02:39:49;-2.10;99.90
41882;DHT22;27562;47.524;12.404;2023-12-28T02:42:17;-2.10;99.90
41882;DHT22;27562;47.524;12.404;2023-12-28T02:44:43;-2.10;99.90
41882;DHT22;27562;47.524;12.404;2023-12-28T02:47:08;-2.10;99.90
41882;DHT22;27562;47.524;12.404;2023-12-28T02:49:34;-2.10;99.90
41882;DHT22;27562;47.524;12.404;2023-12-28T02:51:59;-2.10;99.90
41882;DHT22;27562;47.524;12.404;2023-12-28T02:54:25;-2.20;99.90
41882;DHT22;27562;47.524;12.404;2023-12-28T02:56:51;-2.30;99.90
41882;DHT22;27562;47.524;12.404;2023-12-28T02:59:16;-2.40;99.90
41882;DHT22;27562;47.524;12.404;2023-12-28T03:01:42;-2.40;99.90
41882;DHT22;27562;47.524;12.404;2023-12-28T03:04:08;-2.40;99.90
41882;DHT22;27562;47.524;12.404;2023-12-28T03:06:34;-2.30;99.90
41882;DHT22;27562;47.524;12.404;2023-12-28T03:09:01;-2.30;99.90
41882;DHT22;27562;47.524;12.404;2023-12-28T03:11:26;-2.30;99.90
41882;DHT22;27562;47.524;12.404;2023-12-28T03:13:52;-2.30;99.90
41882;DHT22;27562;47.524;12.404;2023-12-28T03:16:18;-2.20;99.90
41882;DHT22;27562;47.524;12.404;2023-12-28T03:18:43;-2.20;99.90
41882;DHT22;27562;47.524;12.404;2023-12-28T03:21:09;-2.20;99.90
41882;DHT22;27562;47.524;12.404;2023-12-28T03:23:35;-2.20;99.90
41882;DHT22;27562;47.524;12.404;2023-12-28T03:26:01;-2.20;99.90
41882;DHT22;27562;47.524;12.404;2023-12-28T03:28:26;-2.10;99.90
41882;DHT22;27562;47.524;12.404;2023-12-28T03:30:52;-2.10;99.90
41882;DHT22;27562;47.524;12.404;2023-12-28T03:33:18;-2.10;99.90
41882;DHT22;27562;47.524;12.404;2023-12-28T03:35:43;-2.10;99.90
41882;DHT22;27562;47.524;12.404;2023-12-28T03:38:09;-2.10;99.90
41882;DHT22;27562;47.524;12.404;2023-12-28T03:40:35;-2.20;99.90
41882;DHT22;27562;47.524;12.404;2023-12-28T03:43:00;-2.20;99.90
41882;DHT22;27562;47.524;12.404;2023-12-28T03:45:26;-2.20;99.90
41882;DHT22;27562;47.524;12.404;2023-12-28T03:47:52;-2.20;99.90
41882;DHT22;27562;47.524;12.404;2023-12-28T03:50:17;-2.20;99.90
41882;DHT22;27562;47.524;12.404;2023-12-28T03:52:43;-2.30;99.90
41882;DHT22;27562;47.524;12.404;2023-12-28T03:55:09;-2.20;99.90
41882;DHT22;27562;47.524;12.404;2023-12-28T03:57:34;-2.20;99.90
41882;DHT22;27562;47.524;12.404;2023-12-28T04:00:00;-2.20;99.90
41882;DHT22;27562;47.524;12.404;2023-12-28T04:02:26;-2.20;99.90
41882;DHT22;27562;47.524;12.404;2023-12-28T04:04:56;-2.20;99.90
41882;DHT22;27562;47.524;12.404;2023-12-28T04:07:24;-2.30;99.90
41882;DHT22;27562;47.524;12.404;2023-12-28T04:09:49;-2.40;99.90
41882;DHT22;27562;47.524;12.404;2023-12-28T04:12:15;-2.40;99.90
41882;DHT22;27562;47.524;12.404;2023-12-28T04:14:41;-2.40;99.90
41882;DHT22;27562;47.524;12.404;2023-12-28T04:17:06;-2.50;99.90
41882;DHT22;27562;47.524;12.404;2023-12-28T04:19:32;-2.50;99.90
41882;DHT22;27562;47.524;12.404;2023-12-28T04:21:58;-2.50;99.90
41882;DHT22;27562;47.524;12.404;2023-12-28T04:24:23;-2.60;99.90
41882;DHT22;27562;47.524;12.404;2023-12-28T04:26:49;-2.60;99.90
41882;DHT22;27562;47.524;12.404;2023-12-28T04:29:14;-2.60;99.90
41882;DHT22;27562;47.524;12.404;2023-12-28T04:31:41;-2.60;99.90
41882;DHT22;27562;47.524;12.404;2023-12-28T04:34:09;-2.60;99.90
41882;DHT22;27562;47.524;12.404;2023-12-28T04:36:42;-2.60;99.90
41882;DHT22;27562;47.524;12.404;2023-12-28T04:39:08;-2.60;99.90
41882;DHT22;27562;47.524;12.404;2023-12-28T04:41:34;-2.60;99.90
41882;DHT22;27562;47.524;12.404;2023-12-28T04:43:59;-2.50;99.90
41882;DHT22;27562;47.524;12.404;2023-12-28T04:46:25;-2.50;99.90
41882;DHT22;27562;47.524;12.404;2023-12-28T04:48:51;-2.50;99.90
41882;DHT22;27562;47.524;12.404;2023-12-28T04:51:16;-2.50;99.90
41882;DHT22;27562;47.524;12.404;2023-12-28T04:53:42;-2.50;99.90
41882;DHT22;27562;47.524;12.404;2023-12-28T04:56:08;-2.60;99.90
41882;DHT22;27562;47.524;12.404;2023-12-28T04:58:33;-2.60;99.90
41882;DHT22;27562;47.524;12.404;2023-12-28T05:01:01;-2.60;99.90
41882;DHT22;27562;47.524;12.404;2023-12-28T05:03:27;-2.60;99.90
41882;DHT22;27562;47.524;12.404;2023-12-28T05:05:53;-2.70;99.90
41882;DHT22;27562;47.524;12.404;2023-12-28T05:08:18;-2.70;99.90
41882;DHT22;27562;47.524;12.404;2023-12-28T05:10:44;-2.70;99.90
41882;DHT22;27562;47.524;12.404;2023-12-28T05:13:10;-2.80;99.90
41882;DHT22;27562;47.524;12.404;2023-12-28T05:15:35;-2.80;99.90
41882;DHT22;27562;47.524;12.404;2023-12-28T05:18:01;-2.80;99.90
41882;DHT22;27562;47.524;12.404;2023-12-28T05:20:27;-2.80;99.90
41882;DHT22;27562;47.524;12.404;2023-12-28T05:22:52;-2.70;99.90
41882;DHT22;27562;47.524;12.404;2023-12-28T05:25:24;-2.80;99.90
41882;DHT22;27562;47.524;12.404;2023-12-28T05:27:56;-2.80;99.90
41882;DHT22;27562;47.524;12.404;2023-12-28T05:30:24;-2.90;99.90
41882;DHT22;27562;47.524;12.404;2023-12-28T05:32:58;-2.90;99.90
41882;DHT22;27562;47.524;12.404;2023-12-28T05:35:24;-3.00;99.90
41882;DHT22;27562;47.524;12.404;2023-12-28T05:37:50;-3.00;99.90
41882;DHT22;27562;47.524;12.404;2023-12-28T05:40:15;-3.10;99.90
41882;DHT22;27562;47.524;12.404;2023-12-28T05:42:41;-3.10;99.90
41882;DHT22;27562;47.524;12.404;2023-12-28T05:45:07;-3.10;99.90
41882;DHT22;27562;47.524;12.404;2023-12-28T05:47:33;-3.10;99.90
41882;DHT22;27562;47.524;12.404;2023-12-28T05:49:58;-3.10;99.90
41882;DHT22;27562;47.524;12.404;2023-12-28T05:52:27;-3.00;99.90
41882;DHT22;27562;47.524;12.404;2023-12-28T05:55:04;-3.00;99.90
41882;DHT22;27562;47.524;12.404;2023-12-28T05:57:30;-3.00;99.90
41882;DHT22;27562;47.524;12.404;2023-12-28T05:59:59;-3.10;99.90
41882;DHT22;27562;47.524;12.404;2023-12-28T06:02:25;-3.10;99.90
41882;DHT22;27562;47.524;12.404;2023-12-28T06:04:51;-3.10;99.90
41882;DHT22;27562;47.524;12.404;2023-12-28T06:07:24;-3.10;99.90
41882;DHT22;27562;47.524;12.404;2023-12-28T06:09:54;-3.10;99.90
41882;DHT22;27562;47.524;12.404;2023-12-28T06:12:22;-3.10;99.90
41882;DHT22;27562;47.524;12.404;2023-12-28T06:14:54;-3.10;99.90
41882;DHT22;27562;47.524;12.404;2023-12-28T06:17:20;-3.10;99.90
41882;DHT22;27562;47.524;12.404;2023-12-28T06:19:46;-3.20;99.90
41882;DHT22;27562;47.524;12.404;2023-12-28T06:22:12;-3.20;99.90
41882;DHT22;27562;47.524;12.404;2023-12-28T06:24:38;-3.30;99.90
41882;DHT22;27562;47.524;12.404;2023-12-28T06:27:05;-3.30;99.90
41882;DHT22;27562;47.524;12.404;2023-12-28T06:29:30;-3.30;99.90
41882;DHT22;27562;47.524;12.404;2023-12-28T06:31:56;-3.30;99.90
41882;DHT22;27562;47.524;12.404;2023-12-28T06:34:21;-3.30;99.90
41882;DHT22;27562;47.524;12.404;2023-12-28T06:36:47;-3.30;99.90
41882;DHT22;27562;47.524;12.404;2023-12-28T06:39:13;-3.40;99.90
41882;DHT22;27562;47.524;12.404;2023-12-28T06:41:39;-3.40;99.90
41882;DHT22;27562;47.524;12.404;2023-12-28T06:44:04;-3.40;99.90
41882;DHT22;27562;47.524;12.404;2023-12-28T06:46:30;-3.40;99.90
41882;DHT22;27562;47.524;12.404;2023-12-28T06:48:56;-3.40;99.90
41882;DHT22;27562;47.524;12.404;2023-12-28T06:51:24;-3.40;99.90
41882;DHT22;27562;47.524;12.404;2023-12-28T06:53:50;-3.50;99.90
41882;DHT22;27562;47.524;12.404;2023-12-28T06:56:15;-3.40;99.90
41882;DHT22;27562;47.524;12.404;2023-12-28T06:58:41;-3.40;99.90
41882;DHT22;27562;47.524;12.404;2023-12-28T07:01:07;-3.40;99.90
41882;DHT22;27562;47.524;12.404;2023-12-28T07:03:33;-3.30;99.90
41882;DHT22;27562;47.524;12.404;2023-12-28T07:05:59;-3.40;99.90
41882;DHT22;27562;47.524;12.404;2023-12-28T07:08:25;-3.40;99.90
41882;DHT22;27562;47.524;12.404;2023-12-28T07:10:51;-3.40;99.90
41882;DHT22;27562;47.524;12.404;2023-12-28T07:13:16;-3.40;99.90
41882;DHT22;27562;47.524;12.404;2023-12-28T07:15:42;-3.40;99.90
41882;DHT22;27562;47.524;12.404;2023-12-28T07:18:08;-3.40;99.90
41882;DHT22;27562;47.524;12.404;2023-12-28T07:20:34;-3.30;99.90
41882;DHT22;27562;47.524;12.404;2023-12-28T07:22:59;-3.30;99.90
41882;DHT22;27562;47.524;12.404;2023-12-28T07:25:25;-3.30;99.90
41882;DHT22;27562;47.524;12.404;2023-12-28T07:27:51;-3.30;99.90
41882;DHT22;27562;47.524;12.404;2023-12-28T07:30:16;-3.30;99.90
41882;DHT22;27562;47.524;12.404;2023-12-28T07:32:43;-3.30;99.90
41882;DHT22;27562;47.524;12.404;2023-12-28T07:35:09;-3.30;99.90
41882;DHT22;27562;47.524;12.404;2023-12-28T07:37:35;-3.40;99.90
41882;DHT22;27562;47.524;12.404;2023-12-28T07:40:02;-3.40;99.90
41882;DHT22;27562;47.524;12.404;2023-12-28T07:42:28;-3.40;99.90
41882;DHT22;27562;47.524;12.404;2023-12-28T07:44:54;-3.50;99.90
41882;DHT22;27562;47.524;12.404;2023-12-28T07:47:20;-3.50;99.90
41882;DHT22;27562;47.524;12.404;2023-12-28T07:49:45;-3.60;99.90
41882;DHT22;27562;47.524;12.404;2023-12-28T07:52:11;-3.60;99.90
41882;DHT22;27562;47.524;12.404;2023-12-28T07:54:37;-3.50;99.90
41882;DHT22;27562;47.524;12.404;2023-12-28T07:57:03;-3.50;99.90
41882;DHT22;27562;47.524;12.404;2023-12-28T07:59:29;-3.50;99.90
41882;DHT22;27562;47.524;12.404;2023-12-28T08:01:55;-3.40;99.90
41882;DHT22;27562;47.524;12.404;2023-12-28T08:04:21;-3.40;99.90
41882;DHT22;27562;47.524;12.404;2023-12-28T08:06:46;-3.30;99.90
41882;DHT22;27562;47.524;12.404;2023-12-28T08:09:12;-3.30;99.90
41882;DHT22;27562;47.524;12.404;2023-12-28T08:11:38;-3.30;99.90
41882;DHT22;27562;47.524;12.404;2023-12-28T08:14:04;-3.20;99.90
41882;DHT22;27562;47.524;12.404;2023-12-28T08:16:30;-3.20;99.90
41882;DHT22;27562;47.524;12.404;2023-12-28T08:18:55;-3.20;99.90
41882;DHT22;27562;47.524;12.404;2023-12-28T08:21:21;-3.20;99.90
41882;DHT22;27562;47.524;12.404;2023-12-28T08:23:47;-3.10;99.90
41882;DHT22;27562;47.524;12.404;2023-12-28T08:26:12;-3.10;99.90
41882;DHT22;27562;47.524;12.404;2023-12-28T08:28:38;-3.00;99.90
41882;DHT22;27562;47.524;12.404;2023-12-28T08:31:04;-3.00;99.90
41882;DHT22;27562;47.524;12.404;2023-12-28T08:33:30;-2.90;99.90
41882;DHT22;27562;47.524;12.404;2023-12-28T08:35:55;-2.80;99.90
41882;DHT22;27562;47.524;12.404;2023-12-28T08:38:21;-2.80;99.90
41882;DHT22;27562;47.524;12.404;2023-12-28T08:40:46;-2.70;99.90
41882;DHT22;27562;47.524;12.404;2023-12-28T08:43:12;-2.60;99.90
41882;DHT22;27562;47.524;12.404;2023-12-28T08:45:38;-2.60;99.90
41882;DHT22;27562;47.524;12.404;2023-12-28T08:48:04;-2.60;99.90
41882;DHT22;27562;47.524;12.404;2023-12-28T08:50:30;-2.50;99.90
41882;DHT22;27562;47.524;12.404;2023-12-28T08:52:56;-2.50;99.90
41882;DHT22;27562;47.524;12.404;2023-12-28T08:55:22;-2.40;99.90
41882;DHT22;27562;47.524;12.404;2023-12-28T08:57:47;-2.40;99.90
41882;DHT22;27562;47.524;12.404;2023-12-28T09:00:13;-2.40;99.90
41882;DHT22;27562;47.524;12.404;2023-12-28T09:02:42;-2.30;99.90
41882;DHT22;27562;47.524;12.404;2023-12-28T09:05:09;-2.30;99.90
41882;DHT22;27562;47.524;12.404;2023-12-28T09:07:35;-2.20;99.90
41882;DHT22;27562;47.524;12.404;2023-12-28T09:10:04;-2.20;99.90
41882;DHT22;27562;47.524;12.404;2023-12-28T09:12:30;-2.10;99.90
41882;DHT22;27562;47.524;12.404;2023-12-28T09:14:56;-2.10;99.90
41882;DHT22;27562;47.524;12.404;2023-12-28T09:17:21;-2.00;99.90
41882;DHT22;27562;47.524;12.404;2023-12-28T09:19:47;-1.90;99.90
41882;DHT22;27562;47.524;12.404;2023-12-28T09:22:13;-1.80;99.90
41882;DHT22;27562;47.524;12.404;2023-12-28T09:24:39;-1.70;99.90
41882;DHT22;27562;47.524;12.404;2023-12-28T09:27:05;-1.60;99.90
41882;DHT22;27562;47.524;12.404;2023-12-28T09:29:31;-1.50;99.90
41882;DHT22;27562;47.524;12.404;2023-12-28T09:31:56;-1.30;99.90
41882;DHT22;27562;47.524;12.404;2023-12-28T09:34:22;-1.20;99.90
41882;DHT22;27562;47.524;12.404;2023-12-28T09:36:47;-1.20;99.90
41882;DHT22;27562;47.524;12.404;2023-12-28T09:39:13;-1.10;99.90
41882;DHT22;27562;47.524;12.404;2023-12-28T09:41:40;-1.00;99.90
41882;DHT22;27562;47.524;12.404;2023-12-28T09:44:12;-0.90;99.90
41882;DHT22;27562;47.524;12.404;2023-12-28T09:46:41;-0.80;99.90
41882;DHT22;27562;47.524;12.404;2023-12-28T09:49:08;-0.80;99.90
41882;DHT22;27562;47.524;12.404;2023-12-28T09:51:33;-0.70;99.90
41882;DHT22;27562;47.524;12.404;2023-12-28T09:53:59;-0.60;99.90
41882;DHT22;27562;47.524;12.404;2023-12-28T09:56:25;-0.50;99.90
41882;DHT22;27562;47.524;12.404;2023-12-28T09:58:51;-0.40;99.90
41882;DHT22;27562;47.524;12.404;2023-12-28T10:01:20;-0.40;99.90
41882;DHT22;27562;47.524;12.404;2023-12-28T10:03:46;-0.30;99.90
41882;DHT22;27562;47.524;12.404;2023-12-28T10:06:11;-0.20;99.90
41882;DHT22;27562;47.524;12.404;2023-12-28T10:08:48;-0.10;99.90
41882;DHT22;27562;47.524;12.404;2023-12-28T10:11:20;0.00;99.90
41882;DHT22;27562;47.524;12.404;2023-12-28T10:13:47;0.10;99.90
41882;DHT22;27562;47.524;12.404;2023-12-28T10:16:14;0.20;99.90
41882;DHT22;27562;47.524;12.404;2023-12-28T10:18:44;0.40;99.90
41882;DHT22;27562;47.524;12.404;2023-12-28T10:21:11;0.50;99.90
41882;DHT22;27562;47.524;12.404;2023-12-28T10:23:37;0.60;99.90
41882;DHT22;27562;47.524;12.404;2023-12-28T10:26:04;0.70;99.90
41882;DHT22;27562;47.524;12.404;2023-12-28T10:28:34;0.80;99.90
41882;DHT22;27562;47.524;12.404;2023-12-28T10:31:02;0.80;99.90
41882;DHT22;27562;47.524;12.404;2023-12-28T10:33:37;0.90;99.90
41882;DHT22;27562;47.524;12.404;2023-12-28T10:36:07;1.00;99.90
41882;DHT22;27562;47.524;12.404;2023-12-28T10:38:35;1.10;99.90
41882;DHT22;27562;47.524;12.404;2023-12-28T10:41:07;1.10;99.90
41882;DHT22;27562;47.524;12.404;2023-12-28T10:43:46;1.20;99.90
41882;DHT22;27562;47.524;12.404;2023-12-28T10:46:25;1.30;99.90
41882;DHT22;27562;47.524;12.404;2023-12-28T10:48:56;1.30;99.90
41882;DHT22;27562;47.524;12.404;2023-12-28T10:51:25;1.40;99.90
41882;DHT22;27562;47.524;12.404;2023-12-28T10:56:35;1.50;99.90
41882;DHT22;27562;47.524;12.404;2023-12-28T10:59:07;1.60;99.90
41882;DHT22;27562;47.524;12.404;2023-12-28T11:01:37;1.70;99.90
41882;DHT22;27562;47.524;12.404;2023-12-28T11:06:58;1.90;99.90
41882;DHT22;27562;47.524;12.404;2023-12-28T11:09:26;2.10;99.90
41882;DHT22;27562;47.524;12.404;2023-12-28T11:11:57;2.20;99.90
41882;DHT22;27562;47.524;12.404;2023-12-28T11:14:24;2.30;99.90
41882;DHT22;27562;47.524;12.404;2023-12-28T11:16:52;2.30;99.90
41882;DHT22;27562;47.524;12.404;2023-12-28T11:19:19;2.30;99.90
41882;DHT22;27562;47.524;12.404;2023-12-28T11:21:50;2.30;99.90
41882;DHT22;27562;47.524;12.404;2023-12-28T11:24:16;2.40;99.90
41882;DHT22;27562;47.524;12.404;2023-12-28T11:26:43;2.40;99.90
41882;DHT22;27562;47.524;12.404;2023-12-28T11:29:08;2.40;99.90
41882;DHT22;27562;47.524;12.404;2023-12-28T11:31:35;2.40;99.90
41882;DHT22;27562;47.524;12.404;2023-12-28T11:34:03;2.40;99.90
41882;DHT22;27562;47.524;12.404;2023-12-28T11:36:43;2.50;99.90
41882;DHT22;27562;47.524;12.404;2023-12-28T11:39:10;2.50;99.90
41882;DHT22;27562;47.524;12.404;2023-12-28T11:41:36;2.50;99.90
41882;DHT22;27562;47.524;12.404;2023-12-28T11:44:05;2.60;99.90
41882;DHT22;27562;47.524;12.404;2023-12-28T11:46:35;2.60;99.90
41882;DHT22;27562;47.524;12.404;2023-12-28T11:49:05;2.60;99.90
41882;DHT22;27562;47.524;12.404;2023-12-28T11:51:33;2.60;99.90
41882;DHT22;27562;47.524;12.404;2023-12-28T11:53:59;2.70;99.90
41882;DHT22;27562;47.524;12.404;2023-12-28T11:56:25;2.70;99.90
41882;DHT22;27562;47.524;12.404;2023-12-28T11:58:51;2.70;99.90
41882;DHT22;27562;47.524;12.404;2023-12-28T12:01:17;2.80;99.90
41882;DHT22;27562;47.524;12.404;2023-12-28T12:03:43;2.80;99.90
41882;DHT22;27562;47.524;12.404;2023-12-28T12:06:08;2.90;99.90
41882;DHT22;27562;47.524;12.404;2023-12-28T12:08:35;3.00;99.90
41882;DHT22;27562;47.524;12.404;2023-12-28T12:11:02;3.10;99.90
41882;DHT22;27562;47.524;12.404;2023-12-28T12:13:30;3.10;99.90
41882;DHT22;27562;47.524;12.404;2023-12-28T12:15:56;3.20;99.90
41882;DHT22;27562;47.524;12.404;2023-12-28T12:18:23;3.20;99.90
41882;DHT22;27562;47.524;12.404;2023-12-28T12:20:49;3.30;99.90
41882;DHT22;27562;47.524;12.404;2023-12-28T12:23:15;3.40;99.90
41882;DHT22;27562;47.524;12.404;2023-12-28T12:25:41;3.50;99.90
41882;DHT22;27562;47.524;12.404;2023-12-28T12:28:07;3.50;99.90
41882;DHT22;27562;47.524;12.404;2023-12-28T12:30:34;3.60;99.90
41882;DHT22;27562;47.524;12.404;2023-12-28T12:33:00;3.60;99.90
41882;DHT22;27562;47.524;12.404;2023-12-28T12:35:26;3.60;99.90
41882;DHT22;27562;47.524;12.404;2023-12-28T12:37:52;3.70;99.90
41882;DHT22;27562;47.524;12.404;2023-12-28T12:40:19;3.70;99.90
41882;DHT22;27562;47.524;12.404;2023-12-28T12:42:53;3.70;99.90
41882;DHT22;27562;47.524;12.404;2023-12-28T12:45:20;3.70;99.90
41882;DHT22;27562;47.524;12.404;2023-12-28T12:47:47;3.80;99.90
41882;DHT22;27562;47.524;12.404;2023-12-28T12:50:13;3.90;99.90
41882;DHT22;27562;47.524;12.404;2023-12-28T12:52:41;4.00;99.90
41882;DHT22;27562;47.524;12.404;2023-12-28T12:55:13;4.00;99.90
41882;DHT22;27562;47.524;12.404;2023-12-28T12:57:42;4.00;99.90
41882;DHT22;27562;47.524;12.404;2023-12-28T13:00:09;4.00;99.90
41882;DHT22;27562;47.524;12.404;2023-12-28T13:02:37;4.00;99.90
41882;DHT22;27562;47.524;12.404;2023-12-28T13:05:03;3.90;99.90
41882;DHT22;27562;47.524;12.404;2023-12-28T13:07:31;3.90;99.90
41882;DHT22;27562;47.524;12.404;2023-12-28T13:09:56;3.90;99.90
41882;DHT22;27562;47.524;12.404;2023-12-28T13:12:22;3.90;99.90
41882;DHT22;27562;47.524;12.404;2023-12-28T13:14:50;3.90;99.90
41882;DHT22;27562;47.524;12.404;2023-12-28T13:17:15;3.90;99.90
41882;DHT22;27562;47.524;12.404;2023-12-28T13:19:42;3.90;99.90
41882;DHT22;27562;47.524;12.404;2023-12-28T13:22:07;3.90;99.90
41882;DHT22;27562;47.524;12.404;2023-12-28T13:24:33;4.00;99.90
41882;DHT22;27562;47.524;12.404;2023-12-28T13:26:59;4.00;99.90
41882;DHT22;27562;47.524;12.404;2023-12-28T13:29:26;4.00;99.90
41882;DHT22;27562;47.524;12.404;2023-12-28T13:31:51;4.10;99.90
41882;DHT22;27562;47.524;12.404;2023-12-28T13:34:17;4.00;99.90
41882;DHT22;27562;47.524;12.404;2023-12-28T13:36:44;4.00;99.90
41882;DHT22;27562;47.524;12.404;2023-12-28T13:39:11;4.00;99.90
41882;DHT22;27562;47.524;12.404;2023-12-28T13:41:42;4.00;99.90
41882;DHT22;27562;47.524;12.404;2023-12-28T13:44:08;3.90;99.90
41882;DHT22;27562;47.524;12.404;2023-12-28T13:46:38;3.90;99.90
41882;DHT22;27562;47.524;12.404;2023-12-28T13:49:04;3.90;99.90
41882;DHT22;27562;47.524;12.404;2023-12-28T13:51:30;3.90;99.90
41882;DHT22;27562;47.524;12.404;2023-12-28T13:53:56;3.80;99.90
41882;DHT22;27562;47.524;12.404;2023-12-28T13:56:22;3.80;99.90
41882;DHT22;27562;47.524;12.404;2023-12-28T13:58:47;3.80;99.90
41882;DHT22;27562;47.524;12.404;2023-12-28T14:01:13;3.80;99.90
41882;DHT22;27562;47.524;12.404;2023-12-28T14:03:39;3.80;99.90
41882;DHT22;27562;47.524;12.404;2023-12-28T14:06:05;3.80;99.90
41882;DHT22;27562;47.524;12.404;2023-12-28T14:08:31;3.80;99.90
41882;DHT22;27562;47.524;12.404;2023-12-28T14:10:56;3.80;99.90
41882;DHT22;27562;47.524;12.404;2023-12-28T14:13:22;3.80;99.90
41882;DHT22;27562;47.524;12.404;2023-12-28T14:15:48;3.80;99.90
41882;DHT22;27562;47.524;12.404;2023-12-28T14:18:14;3.80;99.90
41882;DHT22;27562;47.524;12.404;2023-12-28T14:20:39;3.80;99.90
41882;DHT22;27562;47.524;12.404;2023-12-28T14:23:05;3.70;99.90
41882;DHT22;27562;47.524;12.404;2023-12-28T14:25:31;3.60;99.90
41882;DHT22;27562;47.524;12.404;2023-12-28T14:27:57;3.60;99.90
41882;DHT22;27562;47.524;12.404;2023-12-28T14:30:23;3.50;99.90
41882;DHT22;27562;47.524;12.404;2023-12-28T14:32:49;3.50;99.90
41882;DHT22;27562;47.524;12.404;2023-12-28T14:35:15;3.40;99.90
41882;DHT22;27562;47.524;12.404;2023-12-28T14:37:45;3.30;99.90
41882;DHT22;27562;47.524;12.404;2023-12-28T14:40:11;3.20;99.90
41882;DHT22;27562;47.524;12.404;2023-12-28T14:42:38;3.10;99.90
41882;DHT22;27562;47.524;12.404;2023-12-28T14:45:04;3.10;99.90
41882;DHT22;27562;47.524;12.404;2023-12-28T14:47:30;3.00;99.90
41882;DHT22;27562;47.524;12.404;2023-12-28T14:49:56;3.00;99.90
41882;DHT22;27562;47.524;12.404;2023-12-28T14:52:25;2.90;99.90
41882;DHT22;27562;47.524;12.404;2023-12-28T14:54:51;2.90;99.90
41882;DHT22;27562;47.524;12.404;2023-12-28T14:57:19;2.90;99.90
41882;DHT22;27562;47.524;12.404;2023-12-28T14:59:45;2.80;99.90
41882;DHT22;27562;47.524;12.404;2023-12-28T15:02:11;2.80;99.90
41882;DHT22;27562;47.524;12.404;2023-12-28T15:04:37;2.70;99.90
41882;DHT22;27562;47.524;12.404;2023-12-28T15:07:06;2.60;99.90
41882;DHT22;27562;47.524;12.404;2023-12-28T15:09:32;2.60;99.90
41882;DHT22;27562;47.524;12.404;2023-12-28T15:11:58;2.60;99.90
41882;DHT22;27562;47.524;12.404;2023-12-28T15:14:25;2.60;99.90
41882;DHT22;27562;47.524;12.404;2023-12-28T15:16:51;2.60;99.90
41882;DHT22;27562;47.524;12.404;2023-12-28T15:19:17;2.50;99.90
41882;DHT22;27562;47.524;12.404;2023-12-28T15:21:43;2.50;99.90
41882;DHT22;27562;47.524;12.404;2023-12-28T15:24:09;2.40;99.90